createdAt,value
2023-06-11T00:01:58.434Z,19.06
2023-06-11T00:04:36.036Z,19.08
2023-06-11T00:07:11.962Z,19.23
2023-06-11T00:09:46.600Z,19.13
2023-06-11T00:12:21.016Z,19.07
2023-06-11T00:14:55.796Z,19.07
2023-06-11T00:17:30.527Z,19.14
2023-06-11T00:20:10.649Z,19.24
2023-06-11T00:22:46.467Z,19.31
2023-06-11T00:25:22.398Z,19.22
2023-06-11T00:27:56.952Z,19.25
2023-06-11T00:30:32.414Z,19.32
2023-06-11T00:33:06.810Z,19.28
2023-06-11T00:35:41.524Z,19.40
2023-06-11T00:38:20.574Z,19.44
2023-06-11T00:40:55.525Z,19.52
2023-06-11T00:43:32.104Z,19.41
2023-06-11T00:46:12.046Z,19.36
2023-06-11T00:48:46.788Z,19.30
2023-06-11T00:51:23.978Z,19.20
2023-06-11T00:53:59.771Z,19.13
2023-06-11T00:56:34.671Z,19.07
2023-06-11T00:59:09.837Z,18.98
2023-06-11T01:01:52.467Z,19.01
2023-06-11T01:04:30.636Z,18.97
2023-06-11T01:07:09.742Z,18.97
2023-06-11T01:09:47.634Z,18.98
2023-06-11T01:12:22.992Z,19.06
2023-06-11T01:14:57.368Z,19.12
2023-06-11T01:17:43.246Z,19.03
2023-06-11T01:20:26.509Z,19.09
2023-06-11T01:23:32.524Z,18.98
2023-06-11T01:26:19.479Z,19.08
2023-06-11T01:28:59.594Z,19.20
2023-06-11T01:31:38.903Z,19.15
2023-06-11T01:34:14.638Z,19.16
2023-06-11T01:36:49.619Z,19.12
2023-06-11T01:39:24.775Z,19.17
2023-06-11T01:42:00.104Z,19.06
2023-06-11T01:44:36.366Z,19.05
2023-06-11T01:47:10.916Z,18.97
2023-06-11T01:49:45.827Z,18.96
2023-06-11T01:52:20.375Z,18.80
2023-06-11T01:54:55.096Z,18.79
2023-06-11T01:57:29.418Z,18.77
2023-06-11T02:00:08.011Z,18.64
2023-06-11T02:02:50.721Z,18.78
2023-06-11T02:05:25.822Z,18.70
2023-06-11T02:08:00.556Z,18.73
2023-06-11T02:10:35.323Z,18.69
2023-06-11T02:13:09.694Z,18.67
2023-06-11T02:15:46.021Z,18.63
2023-06-11T02:18:20.348Z,18.51
2023-06-11T02:20:55.026Z,18.43
2023-06-11T02:23:31.083Z,18.63
2023-06-11T02:26:05.780Z,18.68
2023-06-11T02:28:40.264Z,18.65
2023-06-11T02:31:16.447Z,18.70
2023-06-11T02:33:50.881Z,18.67
2023-06-11T02:36:25.601Z,18.48
2023-06-11T02:39:00.177Z,18.53
2023-06-11T02:41:35.265Z,18.56
2023-06-11T02:44:09.762Z,18.46
2023-06-11T02:46:45.960Z,18.65
2023-06-11T02:49:20.328Z,18.74
2023-06-11T02:51:54.989Z,18.55
2023-06-11T02:54:29.367Z,18.52
2023-06-11T02:57:04.048Z,18.38
2023-06-11T02:59:38.459Z,18.32
2023-06-11T03:02:14.546Z,18.50
2023-06-11T03:04:48.884Z,18.51
2023-06-11T03:07:23.913Z,18.52
2023-06-11T03:09:58.266Z,18.47
2023-06-11T03:12:32.990Z,18.52
2023-06-11T03:15:09.067Z,18.54
2023-06-11T03:17:45.309Z,18.59
2023-06-11T03:20:19.858Z,18.55
2023-06-11T03:22:54.723Z,18.49
2023-06-11T03:25:29.139Z,18.52
2023-06-11T03:28:04.902Z,18.59
2023-06-11T03:30:39.820Z,18.57
2023-06-11T03:33:16.189Z,18.73
2023-06-11T03:35:50.753Z,18.72
2023-06-11T03:38:25.683Z,18.82
2023-06-11T03:41:00.502Z,18.75
2023-06-11T03:43:35.337Z,18.74
2023-06-11T03:46:09.687Z,18.73
2023-06-11T03:48:46.060Z,18.89
2023-06-11T03:51:20.795Z,18.72
2023-06-11T03:53:55.429Z,18.96
2023-06-11T03:56:29.773Z,18.87
2023-06-11T03:59:04.581Z,18.86
2023-06-11T04:01:38.999Z,18.82
2023-06-11T04:04:15.114Z,18.75
2023-06-11T04:06:49.669Z,18.76
2023-06-11T04:09:24.474Z,18.90
2023-06-11T04:11:59.188Z,19.00
2023-06-11T04:14:33.815Z,18.98
2023-06-11T04:17:08.426Z,19.01
2023-06-11T04:19:44.892Z,18.95
2023-06-11T04:22:19.760Z,18.89
2023-06-11T04:24:55.141Z,18.72
2023-06-11T04:27:29.531Z,18.87
2023-06-11T04:30:04.787Z,18.82
2023-06-11T04:32:41.654Z,18.84
2023-06-11T04:35:18.497Z,18.92
2023-06-11T04:37:54.114Z,19.07
2023-06-11T04:40:29.686Z,19.10
2023-06-11T04:43:04.049Z,19.13
2023-06-11T04:45:40.004Z,19.19
2023-06-11T04:48:22.741Z,19.20
2023-06-11T04:51:00.948Z,19.20
2023-06-11T04:53:38.557Z,19.25
2023-06-11T04:56:13.694Z,19.14
2023-06-11T04:58:48.307Z,19.16
2023-06-11T05:01:24.306Z,19.19
2023-06-11T05:03:59.059Z,19.28
2023-06-11T05:06:35.204Z,19.44
2023-06-11T05:09:10.637Z,19.59
2023-06-11T05:11:46.552Z,19.60
2023-06-11T05:14:21.179Z,19.79
2023-06-11T05:16:56.268Z,19.83
2023-06-11T05:19:30.878Z,19.97
2023-06-11T05:22:08.275Z,19.86
2023-06-11T05:24:44.253Z,20.00
2023-06-11T05:27:18.995Z,19.99
2023-06-11T05:29:53.612Z,20.04
2023-06-11T05:32:32.585Z,20.16
2023-06-11T05:35:08.540Z,20.30
2023-06-11T05:37:45.655Z,20.25
2023-06-11T05:40:20.299Z,20.41
2023-06-11T05:42:55.031Z,20.33
2023-06-11T05:45:29.649Z,20.44
2023-06-11T05:48:06.906Z,20.27
2023-06-11T05:50:41.911Z,20.51
2023-06-11T05:53:18.118Z,20.36
2023-06-11T05:55:55.452Z,20.40
2023-06-11T05:58:32.469Z,20.55
2023-06-11T06:03:02.387Z,20.87
2023-06-11T06:05:38.848Z,20.55
2023-06-11T06:08:13.934Z,20.58
2023-06-11T06:10:48.854Z,20.52
2023-06-11T06:13:24.266Z,20.87
2023-06-11T06:15:59.363Z,20.80
2023-06-11T06:18:38.384Z,20.64
2023-06-11T06:21:13.270Z,20.75
2023-06-11T06:23:47.721Z,20.66
2023-06-11T06:26:24.216Z,20.61
2023-06-11T06:28:58.899Z,20.63
2023-06-11T06:31:34.190Z,20.55
2023-06-11T06:34:11.816Z,20.66
2023-06-11T06:36:46.501Z,20.57
2023-06-11T06:39:21.524Z,20.48
2023-06-11T06:41:57.714Z,20.50
2023-06-11T06:44:39.092Z,20.54
2023-06-11T06:47:13.934Z,20.68
2023-06-11T06:49:49.842Z,20.71
2023-06-11T06:52:24.780Z,20.69
2023-06-11T06:54:59.152Z,20.75
2023-06-11T06:57:33.983Z,20.90
2023-06-11T07:00:11.188Z,20.80
2023-06-11T07:02:47.028Z,20.90
2023-06-11T07:05:23.037Z,21.17
2023-06-11T07:10:34.356Z,21.53
2023-06-11T07:13:11.403Z,21.34
2023-06-11T07:15:46.021Z,21.43
2023-06-11T07:18:20.816Z,21.39
2023-06-11T07:20:56.562Z,21.53
2023-06-11T07:23:31.651Z,21.74
2023-06-11T07:26:06.407Z,21.80
2023-06-11T07:28:42.375Z,21.87
2023-06-11T07:31:17.233Z,22.01
2023-06-11T07:33:52.085Z,22.13
2023-06-11T07:36:28.162Z,22.12
2023-06-11T07:39:03.218Z,22.28
2023-06-11T07:41:38.375Z,22.41
2023-06-11T07:44:14.085Z,22.56
2023-06-11T07:46:48.713Z,22.56
2023-06-11T07:49:23.975Z,22.61
2023-06-11T07:51:59.850Z,22.58
2023-06-11T07:54:34.735Z,22.78
2023-06-11T07:57:11.171Z,22.91
2023-06-11T07:59:46.003Z,23.10
2023-06-11T08:02:20.624Z,23.14
2023-06-11T08:04:55.387Z,22.98
2023-06-11T08:07:31.252Z,23.42
2023-06-11T08:10:07.097Z,23.53
2023-06-11T08:12:42.020Z,23.69
2023-06-11T08:15:17.045Z,23.98
2023-06-11T08:17:51.605Z,23.79
2023-06-11T08:20:26.980Z,23.60
2023-06-11T08:23:02.814Z,23.48
2023-06-11T08:25:38.163Z,23.71
2023-06-11T08:28:12.574Z,23.66
2023-06-11T08:30:47.326Z,23.47
2023-06-11T08:33:21.900Z,23.45
2023-06-11T08:35:56.939Z,23.52
2023-06-11T08:38:32.644Z,23.40
2023-06-11T08:41:07.452Z,23.58
2023-06-11T08:43:42.012Z,23.53
2023-06-11T08:46:17.329Z,23.48
2023-06-11T08:48:59.138Z,23.40
2023-06-11T08:51:38.339Z,23.54
2023-06-11T08:54:15.210Z,23.48
2023-06-11T08:56:50.607Z,23.64
2023-06-11T08:59:25.096Z,23.41
2023-06-11T09:01:59.937Z,23.53
2023-06-11T09:04:34.527Z,23.84
2023-06-11T09:07:09.889Z,23.73
2023-06-11T09:09:46.225Z,23.72
2023-06-11T09:12:20.919Z,23.87
2023-06-11T09:14:55.359Z,23.76
2023-06-11T09:17:36.250Z,23.65
2023-06-11T09:20:13.516Z,23.62
2023-06-11T09:22:51.913Z,23.84
2023-06-11T09:25:35.179Z,23.84
2023-06-11T09:28:11.233Z,24.04
2023-06-11T09:30:55.606Z,24.17
2023-06-11T09:33:32.154Z,24.05
2023-06-11T09:36:06.963Z,24.09
2023-06-11T09:38:41.667Z,24.34
2023-06-11T09:41:20.447Z,24.68
2023-06-11T09:43:56.167Z,24.84
2023-06-11T09:46:31.358Z,25.05
2023-06-11T09:49:06.746Z,24.58
2023-06-11T09:51:41.826Z,24.50
2023-06-11T09:54:17.042Z,24.49
2023-06-11T09:56:53.101Z,24.79
2023-06-11T09:59:29.003Z,25.03
2023-06-11T10:02:06.406Z,24.95
2023-06-11T10:04:41.895Z,24.87
2023-06-11T10:07:17.632Z,24.66
2023-06-11T10:09:55.811Z,24.47
2023-06-11T10:12:35.293Z,24.64
2023-06-11T10:15:14.030Z,24.72
2023-06-11T10:17:52.188Z,24.54
2023-06-11T10:20:29.322Z,24.25
2023-06-11T10:23:08.655Z,24.52
2023-06-11T10:25:44.065Z,24.91
2023-06-11T10:28:19.971Z,24.65
2023-06-11T10:30:55.422Z,24.26
2023-06-11T10:33:38.257Z,24.13
2023-06-11T10:36:24.317Z,24.08
2023-06-11T10:39:07.054Z,24.01
2023-06-11T10:41:42.914Z,23.91
2023-06-11T10:44:18.759Z,23.82
2023-06-11T10:46:55.289Z,23.81
2023-06-11T10:49:30.335Z,23.83
2023-06-11T10:52:06.439Z,23.93
2023-06-11T10:54:41.903Z,24.10
2023-06-11T10:57:16.873Z,24.01
2023-06-11T10:59:54.146Z,24.01
2023-06-11T11:02:29.489Z,23.92
2023-06-11T11:05:04.462Z,23.66
2023-06-11T11:07:39.437Z,23.30
2023-06-11T11:10:16.730Z,23.38
2023-06-11T11:12:51.478Z,23.47
2023-06-11T11:15:27.321Z,23.96
2023-06-11T11:18:02.073Z,24.46
2023-06-11T11:20:36.435Z,24.35
2023-06-11T11:23:11.136Z,24.77
2023-06-11T11:25:45.474Z,24.85
2023-06-11T11:28:20.251Z,25.19
2023-06-11T11:30:56.285Z,25.54
2023-06-11T11:33:31.138Z,25.71
2023-06-11T11:36:06.955Z,26.20
2023-06-11T11:38:41.734Z,25.84
2023-06-11T11:41:16.064Z,26.20
2023-06-11T11:43:51.757Z,25.85
2023-06-11T11:46:28.191Z,25.48
2023-06-11T11:49:03.413Z,24.95
2023-06-11T11:51:41.950Z,24.71
2023-06-11T11:54:16.711Z,24.44
2023-06-11T11:56:59.695Z,24.26
2023-06-11T11:59:39.694Z,23.97
2023-06-11T12:02:15.673Z,24.01
2023-06-11T12:04:52.556Z,23.16
2023-06-11T12:07:27.943Z,22.64
2023-06-11T12:10:03.943Z,22.30
2023-06-11T12:12:38.617Z,22.14
2023-06-11T12:15:14.754Z,21.96
2023-06-11T12:17:50.527Z,21.69
2023-06-11T12:20:25.180Z,21.64
2023-06-11T12:22:59.491Z,21.55
2023-06-11T12:25:34.683Z,21.66
2023-06-11T12:28:09.224Z,21.74
2023-06-11T12:30:44.434Z,21.86
2023-06-11T12:33:20.517Z,22.19
2023-06-11T12:35:55.216Z,22.30
2023-06-11T12:38:29.642Z,22.37
2023-06-11T12:41:04.535Z,22.01
2023-06-11T12:43:39.194Z,21.74
2023-06-11T12:46:14.048Z,21.78
2023-06-11T12:48:49.886Z,21.66
2023-06-11T12:51:24.754Z,21.68
2023-06-11T12:53:59.202Z,21.90
2023-06-11T12:56:33.858Z,21.88
2023-06-11T12:59:09.158Z,22.06
2023-06-11T13:01:43.963Z,21.97
2023-06-11T13:04:19.927Z,22.09
2023-06-11T13:06:54.649Z,22.30
2023-06-11T13:09:28.981Z,22.32
2023-06-11T13:12:03.800Z,22.58
2023-06-11T13:14:38.200Z,23.05
2023-06-11T13:17:12.985Z,23.35
2023-06-11T13:19:48.896Z,23.44
2023-06-11T13:22:23.644Z,23.08
2023-06-11T13:24:57.971Z,22.87
2023-06-11T13:27:33.090Z,22.57
2023-06-11T13:30:11.365Z,22.05
2023-06-11T13:32:46.943Z,21.84
2023-06-11T13:35:22.848Z,21.51
2023-06-11T13:37:57.616Z,21.56
2023-06-11T13:40:31.986Z,21.32
2023-06-11T13:43:06.781Z,21.51
2023-06-11T13:45:46.083Z,21.34
2023-06-11T13:48:22.074Z,21.49
2023-06-11T13:50:57.982Z,21.45
2023-06-11T13:53:32.690Z,21.69
2023-06-11T13:56:07.446Z,21.65
2023-06-11T13:58:42.458Z,21.97
2023-06-11T14:03:02.625Z,22.62
2023-06-11T14:05:38.126Z,22.62
2023-06-11T14:08:17.501Z,22.09
2023-06-11T14:10:54.115Z,22.04
2023-06-11T14:13:28.632Z,22.20
2023-06-11T14:16:03.474Z,22.12
2023-06-11T14:18:39.322Z,22.03
2023-06-11T14:21:14.088Z,21.95
2023-06-11T14:23:49.340Z,22.10
2023-06-11T14:26:24.379Z,22.09
2023-06-11T14:28:58.781Z,22.18
2023-06-11T14:31:33.493Z,22.21
2023-06-11T14:34:09.352Z,22.33
2023-06-11T14:36:44.074Z,22.16
2023-06-11T14:39:19.003Z,22.26
2023-06-11T14:41:53.923Z,21.96
2023-06-11T14:44:28.694Z,22.07
2023-06-11T14:47:03.427Z,22.15
2023-06-11T14:49:39.568Z,22.36
2023-06-11T14:52:14.320Z,22.24
2023-06-11T14:54:48.586Z,22.12
2023-06-11T14:57:25.931Z,22.13
2023-06-11T15:00:05.296Z,22.06
2023-06-11T15:02:40.330Z,21.85
2023-06-11T15:05:16.100Z,21.95
2023-06-11T15:07:50.818Z,21.95
2023-06-11T15:10:25.456Z,21.94
2023-06-11T15:13:00.123Z,21.95
2023-06-11T15:15:34.578Z,22.33
2023-06-11T15:18:09.802Z,22.56
2023-06-11T15:20:45.598Z,22.51
2023-06-11T15:23:20.270Z,22.27
2023-06-11T15:25:54.728Z,22.17
2023-06-11T15:28:29.603Z,22.33
2023-06-11T15:31:04.270Z,22.19
2023-06-11T15:33:39.298Z,22.14
2023-06-11T15:36:15.120Z,22.04
2023-06-11T15:38:49.767Z,22.01
2023-06-11T15:41:24.234Z,22.02
2023-06-11T15:44:01.382Z,21.95
2023-06-11T15:46:35.933Z,21.94
2023-06-11T15:49:10.760Z,21.91
2023-06-11T15:51:48.894Z,21.88
2023-06-11T15:54:24.063Z,21.87
2023-06-11T15:56:58.491Z,21.78
2023-06-11T15:59:33.642Z,21.92
2023-06-11T16:02:08.496Z,21.96
2023-06-11T16:04:44.521Z,21.84
2023-06-11T16:07:22.399Z,22.01
2023-06-11T16:09:57.076Z,21.81
2023-06-11T16:12:31.387Z,21.77
2023-06-11T16:15:07.483Z,21.99
2023-06-11T16:17:42.161Z,21.89
2023-06-11T16:20:17.418Z,21.82
2023-06-11T16:22:53.443Z,21.61
2023-06-11T16:25:28.163Z,21.46
2023-06-11T16:30:36.928Z,21.32
2023-06-11T16:33:11.408Z,21.20
2023-06-11T16:35:46.151Z,21.12
2023-06-11T16:38:21.959Z,21.07
2023-06-11T16:40:56.766Z,20.93
2023-06-11T16:43:31.165Z,20.82
2023-06-11T16:46:05.940Z,20.65
2023-06-11T16:48:40.708Z,20.58
2023-06-11T16:51:16.107Z,20.62
2023-06-11T16:53:51.990Z,21.10
2023-06-11T16:56:26.698Z,20.93
2023-06-11T16:59:01.076Z,20.91
2023-06-11T17:01:35.799Z,21.04
2023-06-11T17:04:10.502Z,20.86
2023-06-11T17:06:45.578Z,20.60
2023-06-11T17:09:22.234Z,20.35
2023-06-11T17:11:56.950Z,20.26
2023-06-11T17:14:31.332Z,20.36
2023-06-11T17:17:06.517Z,20.49
2023-06-11T17:19:46.028Z,20.54
2023-06-11T17:22:20.874Z,20.83
2023-06-11T17:24:56.731Z,20.84
2023-06-11T17:27:31.858Z,21.03
2023-06-11T17:30:07.711Z,21.14
2023-06-11T17:32:42.547Z,21.08
2023-06-11T17:35:17.117Z,20.90
2023-06-11T17:37:52.754Z,20.93
2023-06-11T17:40:29.086Z,21.01
2023-06-11T17:43:03.857Z,20.97
2023-06-11T17:45:38.255Z,21.00
2023-06-11T17:48:13.107Z,21.03
2023-06-11T17:50:47.634Z,21.09
2023-06-11T17:53:22.373Z,20.95
2023-06-11T17:55:58.180Z,21.01
2023-06-11T17:58:32.964Z,21.00
2023-06-11T18:01:07.370Z,21.05
2023-06-11T18:03:42.029Z,21.04
2023-06-11T18:06:18.554Z,21.02
2023-06-11T18:08:53.738Z,21.13
2023-06-11T18:11:29.655Z,21.23
2023-06-11T18:14:04.436Z,20.96
2023-06-11T18:16:39.325Z,21.07
2023-06-11T18:19:14.294Z,21.12
2023-06-11T18:21:48.762Z,21.13
2023-06-11T18:24:23.667Z,20.96
2023-06-11T18:26:59.634Z,21.00
2023-06-11T18:29:34.667Z,20.94
2023-06-11T18:32:10.215Z,20.88
2023-06-11T18:34:47.381Z,20.77
2023-06-11T18:37:22.202Z,20.72
2023-06-11T18:39:56.960Z,20.68
2023-06-11T18:42:32.842Z,20.68
2023-06-11T18:45:08.983Z,20.56
2023-06-11T18:47:43.475Z,20.46
2023-06-11T18:50:18.506Z,20.50
2023-06-11T18:52:52.899Z,20.51
2023-06-11T18:55:30.710Z,20.38
2023-06-11T18:58:07.257Z,20.38
2023-06-11T19:00:42.272Z,20.32
2023-06-11T19:03:17.710Z,20.25
2023-06-11T19:05:52.788Z,20.12
2023-06-11T19:09:01.612Z,20.07
2023-06-11T20:58:58.401Z,20.80
2023-06-11T21:01:33.440Z,20.80
2023-06-11T21:04:07.971Z,20.03
2023-06-11T21:06:43.756Z,19.88
2023-06-11T21:09:18.251Z,19.73
2023-06-11T21:11:56.231Z,19.60
2023-06-11T21:14:32.085Z,19.88
2023-06-11T21:17:07.413Z,20.30
2023-06-11T21:19:41.931Z,20.58
2023-06-11T21:22:16.720Z,20.40
2023-06-11T21:24:51.094Z,20.19
2023-06-11T21:27:25.846Z,19.96
2023-06-11T21:30:01.628Z,19.77
2023-06-11T21:32:36.549Z,19.53
2023-06-11T21:35:11.401Z,19.58
2023-06-11T21:37:46.099Z,19.45
2023-06-11T21:40:20.823Z,19.49
2023-06-11T21:42:55.479Z,19.44
2023-06-11T22:03:18.190Z,19.20
2023-06-11T22:05:54.793Z,19.20
2023-06-11T22:08:29.211Z,18.81
2023-06-11T22:11:03.922Z,18.78
2023-06-11T22:13:38.268Z,18.49
2023-06-11T22:16:14.208Z,18.43
2023-06-11T22:18:53.333Z,18.31
2023-06-11T22:21:28.901Z,18.28
2023-06-11T22:24:03.631Z,18.28
2023-06-11T22:26:38.306Z,18.31
2023-06-11T22:29:12.706Z,18.41
2023-06-11T22:31:47.399Z,18.19
2023-06-11T22:34:23.226Z,18.20
2023-06-11T22:36:57.812Z,18.21
2023-06-11T22:39:32.096Z,17.90
2023-06-11T22:42:07.445Z,18.03
2023-06-11T22:44:41.997Z,18.04
2023-06-11T22:47:17.623Z,17.96
2023-06-11T22:49:53.355Z,17.88
2023-06-11T22:52:30.115Z,17.98
2023-06-11T22:55:04.523Z,18.06
2023-06-11T22:57:39.201Z,18.07
2023-06-11T23:00:14.792Z,18.09
2023-06-11T23:02:49.701Z,18.15
2023-06-11T23:05:25.522Z,18.05
2023-06-11T23:08:01.101Z,18.12
2023-06-11T23:10:35.406Z,18.07
2023-06-11T23:13:10.044Z,18.06
2023-06-11T23:15:44.392Z,17.99
2023-06-11T23:18:19.205Z,17.94
2023-06-11T23:20:55.054Z,17.71
2023-06-11T23:23:33.613Z,17.67
2023-06-11T23:26:10.862Z,17.75
2023-06-11T23:28:46.032Z,17.72
2023-06-11T23:31:22.104Z,17.67
2023-06-11T23:33:56.932Z,17.49
2023-06-11T23:36:32.714Z,17.55
2023-06-11T23:39:07.799Z,17.58
2023-06-11T23:41:42.709Z,17.54
2023-06-11T23:44:17.346Z,17.27
2023-06-11T23:46:52.808Z,17.03
2023-06-11T23:49:27.484Z,17.22
2023-06-11T23:52:03.432Z,17.30
2023-06-11T23:54:38.075Z,17.42
2023-06-11T23:57:12.546Z,17.32
2023-06-11T23:59:49.020Z,17.25
